Terminal Aerodrome Forecast
Issued by NWS Wichita, KS

Home | Current Version | Previous Version | Text Only | Print | Product List | Glossary On
Versions: 1 2 3 4 5 6 7 8 9 10 11 12 13 14 15 16 17 18 19 20 21 22 23 24 25 26 27
000
FTUS43 KICT 252150 AAB
TAFICT
TAF AMD
KICT 252150Z 2522/2618 19012G20KT P6SM VCTS SCT030 BKN050CB
      TEMPO 2522/2602 VRB20G35KT 3SM TSRA OVC025CB
     FM260300 17010KT P6SM SCT015 BKN050
     FM260600 17010KT P6SM SCT009 BKN015=

USA.gov is the U.S. government's official web portal to all federal, state and local government web resources and services.